CPX267 Details

Departure: Chicago O'Hare International Airport (KORD)
Arrival: Miami International Airport (KMIA) at N/A
Route: DENNT DARCY DREGS DONVE BNA J73 WYATT BULZI NICKI Q81 ENDEW JUULI SSCOT5
Notes:


Current Weather Information
KORD 231351Z 22009G17KT 10SM FEW200 06/01 A2993 RMK AO2 SLP140 T00560006
KMIA 231353Z 12008KT 10SM FEW010 FEW022 SCT250 30/23 A3001 RMK AO2 SLP162 T03000233